Pagrindinis puslapis
METAR-TAF:

METAR-TAF

Oro uostai :

Nelson Lagoon, Aliaska, Jungtinės Amerikos Valstijos

platuma: 56-00-27N, ilguma: 161-09-37W, Aukštis: 4 m

Dabartinis oras

Ataskaita buvo paskelbta 9 minutes, ne 04:01 UTC
Vėjas 19 kt iš Vakarų su gūsio iki 28 kt
Temperatūra 11°C
Drėgmė 94%
Slėgis 1009 hPa
Matomumas: 4.8 km
Išsisklaidę debesys ne aukštis 1000 ft
Su prošvaistėmis ne aukštis 1400 ft
Apsiniaukę ne aukštis 2200 ft
lietus, rūkana

METAR: PAOU 160401Z AUTO 26019G28KT 3SM -RA BR SCT010 BKN014 OVC022 11/10 A2980 RMK AO2 PK WND 27027/0357 PNO $

Laikas: 20:10 (04:10 UTC)


TAF: trūkstamas

Orai ataskaitas ir orų prognozės (METAR, TAF).

turimą stotys yra geltonos ir raudonos taškus žemėlapyje.

Perkelti pele per norėdami pamatyti stoties vardą.

Tada spustelėkite, norėdami matyti oro stebėjimo ir prognozės.

Norėdami pakeisti žemėlapį: spustelėkite ant žalios mygtukų su juodo kryžiaus žemyn,; žalią mygtuką su brūkšneliu, jei norite nutolinti; arba žalių rodyklių gretimoms žemėlapius.


METAR-TAF: